Time;durP1;ratioP1;P1;durP2;ratioP2;P2;SDS_P1;SDS_P2;PMS_P1;PMS_P2;Temp;Humidity;BMP_temperature;BMP_pressure;BME280_temperature;BME280_humidity;BME280_pressure;Samples;Min_cycle;Max_cycle;Signal;HPM_P1;HPM_P2
2023/05/15 00:01:27;;;;;;;;;;;;;;;-142.75;100.00;77137.25;5004944;28;20382;-66
2023/05/15 00:03:53;;;;;;;;;;;;;;;-142.75;100.00;77141.19;5007308;28;19921;-66
2023/05/15 00:06:19;;;;;;;;;;;;;;;-142.75;100.00;77135.28;5004126;28;19913;-66
2023/05/15 00:08:44;;;;;;;;;;;;;;;-142.75;100.00;77145.13;5004357;28;19967;-67
2023/05/15 00:11:09;;;;;;;;;;;;;;;-142.75;100.00;77143.16;5006456;28;20008;-67
2023/05/15 00:13:34;;;;;;;;;;;;;;;-142.75;100.00;77137.25;5006845;28;20016;-65
2023/05/15 00:16:00;;;;;;;;;;;;;;;-142.75;100.00;77153.00;5007590;28;19917;-66
2023/05/15 00:18:25;;;;;;;;;;;;;;;-142.75;100.00;77149.06;5006952;28;19921;-66
2023/05/15 00:20:51;;;;;;;;;;;;;;;-142.75;100.00;77145.13;5007218;28;20487;-68
2023/05/15 00:23:16;;;;;;;;;;;;;;;-142.75;100.00;77137.25;5019901;28;19920;-67
2023/05/15 00:25:42;;;;;;;;;;;;;;;-142.75;100.00;77143.16;5019875;28;19921;-67
2023/05/15 00:28:07;;;;;;;;;;;;;;;-142.75;100.00;77125.44;5006236;28;19909;-67
2023/05/15 00:30:32;;;;;;;;;;;;;;;-142.75;100.00;77137.25;5006291;28;20017;-67
2023/05/15 00:32:57;;;;;;;;;;;;;;;-142.75;100.00;77137.25;5003545;28;20692;-67
2023/05/15 00:35:22;;;;;;;;;;;;;;;-142.75;100.00;77129.38;5006234;28;19929;-66
2023/05/15 00:37:48;;;;;;;;;;;;;;;-142.75;100.00;77149.06;5007032;28;19913;-66
2023/05/15 00:40:17;;;;;;;;;;;;;;;-142.75;100.00;77147.09;5006745;28;19913;-66
2023/05/15 00:42:43;;;;;;;;;;;;;;;-142.75;100.00;77147.09;5006624;28;20000;-66
2023/05/15 00:45:10;;;;;;;;;;;;;;;-142.75;100.00;77147.09;5006615;28;20047;-66
2023/05/15 00:47:35;;;;;;;;;;;;;;;-142.75;100.00;77145.13;5015930;28;19913;-65
2023/05/15 00:50:01;;;;;;;;;;;;;;;-142.75;100.00;77162.84;5003456;28;19921;-65
2023/05/15 00:52:27;;;;;;;;;;;;;;;-142.75;100.00;77153.00;5005995;28;19920;-66
2023/05/15 00:54:52;;;;;;;;;;;;;;;-142.75;100.00;77162.84;5006464;28;19937;-65
2023/05/15 00:57:17;;;;;;;;;;;;;;;-142.75;100.00;77178.59;5006332;28;20030;-65
2023/05/15 00:59:44;;;;;;;;;;;;;;;-142.75;100.00;77180.56;5006324;28;19929;-65
2023/05/15 01:02:09;;;;;;;;;;;;;;;-142.75;100.00;77174.66;5006341;28;19972;-65
2023/05/15 01:04:35;;;;;;;;;;;;;;;-142.75;100.00;77180.56;5006218;28;20516;-66
2023/05/15 01:07:00;;;;;;;;;;;;;;;-142.75;100.00;77160.88;5006233;28;20365;-66
2023/05/15 01:09:28;;;;;;;;;;;;;;;-142.75;100.00;77168.75;5006108;28;19913;-65
2023/05/15 01:11:56;;;;;;;;;;;;;;;-142.75;100.00;77176.63;5006320;28;19917;-63
2023/05/15 01:14:21;;;;;;;;;;;;;;;-142.75;100.00;77186.47;5006303;28;19913;-67
2023/05/15 01:16:46;;;;;;;;;;;;;;;-142.75;100.00;77180.56;5006337;28;19972;-66
2023/05/15 01:19:12;;;;;;;;;;;;;;;-142.75;100.00;77204.19;5006424;28;19925;-65
2023/05/15 01:21:37;;;;;;;;;;;;;;;-142.75;100.00;77219.94;5005943;28;19925;-65
2023/05/15 01:24:21;;;;;;;;;;;;;;;-142.75;100.00;77221.91;5006148;28;20016;-66
2023/05/15 01:27:01;;;;;;;;;;;;;;;-142.75;100.00;77190.41;5005926;28;19921;-65
2023/05/15 01:29:33;;;;;;;;;;;;;;;-142.75;100.00;77208.13;5018346;28;19913;-65
2023/05/15 01:32:01;;;;;;;;;;;;;;;-142.75;100.00;77188.44;5006039;28;19940;-66
2023/05/15 01:34:30;;;;;;;;;;;;;;;-142.75;100.00;77184.50;5005929;28;19935;-65
2023/05/15 01:36:58;;;;;;;;;;;;;;;-142.75;100.00;77208.13;5005733;28;19960;-66
2023/05/15 01:39:26;;;;;;;;;;;;;;;-142.75;100.00;77212.06;5006047;28;19921;-63
2023/05/15 01:41:56;;;;;;;;;;;;;;;-142.75;100.00;77204.19;5005193;28;19940;-65
2023/05/15 01:44:27;;;;;;;;;;;;;;;-142.75;100.00;77208.13;5006128;28;19914;-67
2023/05/15 01:46:54;;;;;;;;;;;;;;;-142.75;100.00;77216.00;5018001;28;20357;-66
2023/05/15 01:49:22;;;;;;;;;;;;;;;-142.75;100.00;77221.91;5009802;28;19922;-65
2023/05/15 01:51:49;;;;;;;;;;;;;;;-142.75;100.00;77221.91;5009767;28;19920;-66
2023/05/15 01:54:15;;;;;;;;;;;;;;;-142.75;100.00;77225.84;5009464;28;19936;-66
2023/05/15 01:56:44;;;;;;;;;;;;;;;-142.75;100.00;77219.94;5009230;28;19921;-67
2023/05/15 01:59:10;;;;;;;;;;;;;;;-142.75;100.00;77221.91;5009759;28;20402;-66
2023/05/15 02:01:37;;;;;;;;;;;;;;;-142.75;100.00;77267.19;5009425;28;19944;-67
2023/05/15 02:04:02;;;;;;;;;;;;;;;-142.75;100.00;77245.53;5009515;28;20000;-64
2023/05/15 02:06:28;;;;;;;;;;;;;;;-142.75;100.00;77243.56;5009121;28;20000;-63
2023/05/15 02:08:56;;;;;;;;;;;;;;;-142.75;100.00;77255.38;5009450;28;19920;-64
2023/05/15 02:11:21;;;;;;;;;;;;;;;-142.75;100.00;77251.44;5009640;28;19975;-65
2023/05/15 02:13:46;;;;;;;;;;;;;;;-142.75;100.00;77271.13;5008938;28;19921;-66
2023/05/15 02:16:11;;;;;;;;;;;;;;;-142.75;100.00;77271.13;5009345;28;20063;-65
2023/05/15 02:18:37;;;;;;;;;;;;;;;-142.75;100.00;77277.03;5009253;28;19920;-65
2023/05/15 02:21:02;;;;;;;;;;;;;;;-142.75;100.00;77263.25;5009220;28;20493;-66
2023/05/15 02:23:27;;;;;;;;;;;;;;;-142.75;100.00;77249.47;5021238;28;20382;-67
2023/05/15 02:26:06;;;;;;;;;;;;;;;-142.75;100.00;77253.41;5009368;28;20464;-65
2023/05/15 02:29:01;;;;;;;;;;;;;;;-142.75;100.00;77216.00;5009067;28;19968;-66
2023/05/15 02:31:26;;;;;;;;;;;;;;;-142.75;100.00;77212.06;4995045;28;19913;-65
2023/05/15 02:33:54;;;;;;;;;;;;;;;-142.75;100.00;77214.03;5008838;28;19917;-66
2023/05/15 02:36:24;;;;;;;;;;;;;;;-142.75;100.00;77200.25;5008671;28;19924;-66
2023/05/15 02:38:53;;;;;;;;;;;;;;;-142.75;100.00;77208.13;5008705;28;19921;-65
2023/05/15 02:41:18;;;;;;;;;;;;;;;-142.75;100.00;77214.03;5008606;28;20457;-66
2023/05/15 02:43:44;;;;;;;;;;;;;;;-142.75;100.00;77202.22;5008601;28;19957;-65
2023/05/15 02:46:11;;;;;;;;;;;;;;;-142.75;100.00;77212.06;5008886;28;19913;-67
2023/05/15 02:48:40;;;;;;;;;;;;;;;-142.75;100.00;77204.19;5008303;28;20032;-65
2023/05/15 02:51:05;;;;;;;;;;;;;;;-142.75;100.00;77216.00;5008750;28;19914;-66
2023/05/15 02:53:31;;;;;;;;;;;;;;;-142.75;100.00;77210.09;5007947;28;19913;-65
2023/05/15 02:55:57;;;;;;;;;;;;;;;-142.75;100.00;77216.00;5005398;28;19917;-64
2023/05/15 02:58:22;;;;;;;;;;;;;;;-142.75;100.00;77196.31;5007789;28;20375;-65
2023/05/15 03:00:47;;;;;;;;;;;;;;;-142.75;100.00;77184.50;5008518;28;20275;-65
2023/05/15 03:03:12;;;;;;;;;;;;;;;-142.75;100.00;77196.31;5021927;28;19952;-67
2023/05/15 03:05:37;;;;;;;;;;;;;;;-142.75;100.00;77204.19;5008034;28;19921;-65
2023/05/15 03:08:04;;;;;;;;;;;;;;;-142.75;100.00;77182.53;5008351;28;19913;-65
2023/05/15 03:10:29;;;;;;;;;;;;;;;-142.75;100.00;77210.09;5008087;28;20007;-65
2023/05/15 03:12:57;;;;;;;;;;;;;;;-142.75;100.00;77208.13;5008107;28;20007;-65
2023/05/15 03:15:22;;;;;;;;;;;;;;;-142.75;100.00;77219.94;5008013;28;20074;-65
2023/05/15 03:17:47;;;;;;;;;;;;;;;-142.75;100.00;77223.88;5009045;28;20012;-65
2023/05/15 03:20:13;;;;;;;;;;;;;;;-142.75;100.00;77231.75;5005251;28;20311;-64
2023/05/15 03:22:38;;;;;;;;;;;;;;;-142.75;100.00;77229.78;5006027;28;19988;-65
2023/05/15 03:25:03;;;;;;;;;;;;;;;-142.75;100.00;77227.81;5007781;28;19920;-65
2023/05/15 03:27:29;;;;;;;;;;;;;;;-142.75;100.00;77212.06;5007927;28;19913;-65
2023/05/15 03:29:54;;;;;;;;;;;;;;;-142.75;100.00;77227.81;5007696;28;19917;-63
2023/05/15 03:32:19;;;;;;;;;;;;;;;-142.75;100.00;77216.00;5007657;28;19960;-66
2023/05/15 03:34:45;;;;;;;;;;;;;;;-142.75;100.00;77227.81;5007632;28;19913;-65
2023/05/15 03:37:10;;;;;;;;;;;;;;;-142.75;100.00;77208.13;5007222;28;19925;-65
2023/05/15 03:39:35;;;;;;;;;;;;;;;-142.75;100.00;77202.22;5007204;28;20012;-65
2023/05/15 03:42:01;;;;;;;;;;;;;;;-142.75;100.00;77202.22;5007516;28;19956;-65
2023/05/15 03:44:26;;;;;;;;;;;;;;;-142.75;100.00;77188.44;5007707;28;19968;-65
2023/05/15 03:46:51;;;;;;;;;;;;;;;-142.75;100.00;77176.63;5008260;28;19921;-65
2023/05/15 03:49:16;;;;;;;;;;;;;;;-142.75;100.00;77176.63;5007602;28;19913;-66
2023/05/15 03:51:41;;;;;;;;;;;;;;;-142.75;100.00;77168.75;5007159;28;19924;-65
2023/05/15 03:54:07;;;;;;;;;;;;;;;-142.75;100.00;77168.75;5003274;28;19916;-65
2023/05/15 03:56:32;;;;;;;;;;;;;;;-142.75;100.00;77162.84;5007149;28;19921;-65
2023/05/15 03:58:58;;;;;;;;;;;;;;;-142.75;100.00;77162.84;5021376;28;20396;-65
2023/05/15 04:01:23;;;;;;;;;;;;;;;-142.75;100.00;77153.00;5007417;28;20421;-65
2023/05/15 04:03:48;;;;;;;;;;;;;;;-142.75;100.00;77153.00;5007230;28;19913;-65
2023/05/15 04:06:14;;;;;;;;;;;;;;;-142.75;100.00;77154.97;5006876;28;19949;-66
2023/05/15 04:08:39;;;;;;;;;;;;;;;-142.75;100.00;77139.22;5006654;28;20011;-65
2023/05/15 04:11:04;;;;;;;;;;;;;;;-142.75;100.00;77113.63;5021787;28;20371;-65
2023/05/15 04:13:30;;;;;;;;;;;;;;;-142.75;100.00;77107.72;5004235;28;19913;-67
2023/05/15 04:15:55;;;;;;;;;;;;;;;-142.75;100.00;77101.81;5006936;28;19917;-65
2023/05/15 04:18:20;;;;;;;;;;;;;;;-142.75;100.00;77091.97;5007720;28;19913;-66
2023/05/15 04:20:45;;;;;;;;;;;;;;;-142.75;100.00;77076.22;5019563;28;19945;-65
2023/05/15 04:23:10;;;;;;;;;;;;;;;-142.75;100.00;77068.34;5006718;28;20297;-65
2023/05/15 04:25:36;;;;;;;;;;;;;;;-142.75;100.00;77068.34;5006679;28;19921;-63
2023/05/15 04:28:01;;;;;;;;;;;;;;;-142.75;100.00;77068.34;5006457;28;19913;-65
2023/05/15 04:30:26;;;;;;;;;;;;;;;-142.75;100.00;77066.38;5007346;28;19952;-67
2023/05/15 04:32:52;;;;;;;;;;;;;;;-142.75;100.00;77062.44;5006860;28;19944;-65
2023/05/15 04:35:17;;;;;;;;;;;;;;;-142.75;100.00;77046.69;5006482;28;19913;-67
2023/05/15 04:37:46;;;;;;;;;;;;;;;-142.75;100.00;77046.69;5006496;28;19924;-66
2023/05/15 04:40:13;;;;;;;;;;;;;;;-142.75;100.00;77034.88;5006653;28;20008;-66
2023/05/15 04:42:38;;;;;;;;;;;;;;;-142.75;100.00;77038.81;5006477;28;19967;-65
2023/05/15 04:45:04;;;;;;;;;;;;;;;-142.75;100.00;77038.81;5006393;28;19925;-65
2023/05/15 04:47:29;;;;;;;;;;;;;;;-142.75;100.00;77040.78;5007092;28;19917;-64
2023/05/15 04:49:55;;;;;;;;;;;;;;;-142.75;100.00;77052.59;5004697;28;19921;-64
2023/05/15 04:52:20;;;;;;;;;;;;;;;-142.75;100.00;77046.69;5005175;28;19921;-67
2023/05/15 04:54:46;;;;;;;;;;;;;;;-142.75;100.00;77032.91;5006428;28;19940;-67
2023/05/15 04:57:12;;;;;;;;;;;;;;;-142.75;100.00;77027.00;5006376;28;19924;-65
2023/05/15 04:59:37;;;;;;;;;;;;;;;-142.75;100.00;77023.06;5018958;28;19913;-67
2023/05/15 05:02:02;;;;;;;;;;;;;;;-142.75;100.00;77038.81;5006352;28;19932;-65
2023/05/15 05:04:27;;;;;;;;;;;;;;;-142.75;100.00;77040.78;5020701;28;19920;-65
2023/05/15 05:06:53;;;;;;;;;;;;;;;-142.75;100.00;77036.84;5006245;28;19980;-66
2023/05/15 05:09:18;;;;;;;;;;;;;;;-142.75;100.00;77023.06;5006452;28;19914;-64
2023/05/15 05:11:44;;;;;;;;;;;;;;;-142.75;100.00;77027.00;5006152;28;19913;-65
2023/05/15 05:14:13;;;;;;;;;;;;;;;-142.75;100.00;77011.25;5006168;28;19949;-65
2023/05/15 05:16:38;;;;;;;;;;;;;;;-142.75;100.00;77030.94;5006474;28;19924;-65
2023/05/15 05:19:04;;;;;;;;;;;;;;;-142.75;100.00;77048.66;5006383;28;20100;-66
2023/05/15 05:21:29;;;;;;;;;;;;;;;-142.75;100.00;77042.75;5009151;28;20371;-66
2023/05/15 05:23:55;;;;;;;;;;;;;;;-142.75;100.00;77044.72;5010244;28;20007;-67
2023/05/15 05:26:20;;;;;;;;;;;;;;;-142.75;100.00;77044.72;5022718;28;19913;-66
2023/05/15 05:28:46;;;;;;;;;;;;;;;-142.75;100.00;77034.88;5010451;28;19913;-65
2023/05/15 05:31:11;;;;;;;;;;;;;;;-142.75;100.00;77032.91;5010454;28;19921;-65
2023/05/15 05:33:36;;;;;;;;;;;;;;;-142.75;100.00;77019.13;5009834;28;19959;-65
2023/05/15 05:36:01;;;;;;;;;;;;;;;-142.75;100.00;77007.31;5009561;28;20356;-65
2023/05/15 05:38:26;;;;;;;;;;;;;;;-142.75;100.00;76975.81;5009978;28;19917;-65
2023/05/15 05:40:52;;;;;;;;;;;;;;;-142.75;100.00;76956.13;5009931;28;19923;-64
2023/05/15 05:43:17;;;;;;;;;;;;;;;-142.75;100.00;76936.44;5009713;28;19924;-65
2023/05/15 05:45:43;;;;;;;;;;;;;;;-142.75;100.00;76926.59;5009530;28;19925;-65
2023/05/15 05:48:08;;;;;;;;;;;;;;;-142.75;100.00;76914.78;5010098;28;20387;-66
2023/05/15 05:50:33;;;;;;;;;;;;;;;-142.75;100.00;76902.97;5009771;28;19996;-65
2023/05/15 05:52:58;;;;;;;;;;;;;;;-142.75;100.00;76871.47;5009526;28;19995;-66
2023/05/15 05:55:24;;;;;;;;;;;;;;;-142.75;100.00;76869.50;5023713;28;20408;-63
2023/05/15 05:57:49;;;;;;;;;;;;;;;-142.75;100.00;76889.19;5009436;28;19920;-63
2023/05/15 06:00:15;;;;;;;;;;;;;;;-142.75;100.00;76885.25;5009534;28;21303;-65
2023/05/15 06:02:40;;;;;;;;;;;;;;;-142.75;100.00;76881.31;5008584;28;19913;-66
2023/05/15 06:05:07;;;;;;;;;;;;;;;-142.75;100.00;76881.31;5007350;28;19992;-65
2023/05/15 06:07:33;;;;;;;;;;;;;;;-142.75;100.00;76889.19;5006075;28;19964;-66
2023/05/15 06:09:58;;;;;;;;;;;;;;;-142.75;100.00;76873.44;4998236;28;19917;-64
2023/05/15 06:12:23;;;;;;;;;;;;;;;-142.75;100.00;76893.13;5009058;28;19931;-65
2023/05/15 06:14:48;;;;;;;;;;;;;;;-142.75;100.00;76877.38;5014114;28;19913;-66
2023/05/15 06:17:14;;;;;;;;;;;;;;;-142.75;100.00;76865.56;5008140;28;19966;-66
2023/05/15 06:19:39;;;;;;;;;;;;;;;-142.75;100.00;76889.19;5010455;28;20562;-65
2023/05/15 06:22:04;;;;;;;;;;;;;;;-142.75;100.00;76871.47;5008795;28;20016;-65
2023/05/15 06:24:30;;;;;;;;;;;;;;;-142.75;100.00;76873.44;5009988;28;20329;-67
2023/05/15 06:26:55;;;;;;;;;;;;;;;-142.75;100.00;76875.41;5006221;28;19914;-64
2023/05/15 06:29:20;;;;;;;;;;;;;;;-142.75;100.00;76873.44;5023579;28;19921;-65
2023/05/15 06:31:45;;;;;;;;;;;;;;;-142.75;100.00;76867.53;5007671;28;20326;-67
2023/05/15 06:34:11;;;;;;;;;;;;;;;-142.75;100.00;76873.44;5017796;28;20000;-64
2023/05/15 06:36:36;;;;;;;;;;;;;;;-142.75;100.00;76855.72;5008326;28;20295;-67
2023/05/15 06:39:01;;;;;;;;;;;;;;;-142.75;100.00;76857.69;5006544;28;20476;-65
2023/05/15 06:41:26;;;;;;;;;;;;;;;-142.75;100.00;76873.44;5009659;28;20398;-66
2023/05/15 06:43:52;;;;;;;;;;;;;;;-142.75;100.00;76885.25;5007481;28;19917;-66
2023/05/15 06:46:17;;;;;;;;;;;;;;;-142.75;100.00;76869.50;4998057;28;19920;-64
2023/05/15 06:48:43;;;;;;;;;;;;;;;-142.75;100.00;76873.44;5003451;28;20325;-64
2023/05/15 06:51:08;;;;;;;;;;;;;;;-142.75;100.00;76871.47;4992062;28;19984;-63
2023/05/15 06:53:34;;;;;;;;;;;;;;;-142.75;100.00;76859.66;5005232;28;19928;-65
2023/05/15 06:55:59;;;;;;;;;;;;;;;-142.75;100.00;76861.63;5004655;28;19965;-64
2023/05/15 06:58:24;;;;;;;;;;;;;;;-142.75;100.00;76847.84;5007253;28;19927;-63
2023/05/15 07:00:50;;;;;;;;;;;;;;;-142.75;100.00;76859.66;5008313;28;19960;-66
2023/05/15 07:03:15;;;;;;;;;;;;;;;-142.75;100.00;76859.66;5008392;28;19917;-67
2023/05/15 07:05:41;;;;;;;;;;;;;;;-142.75;100.00;76843.91;5004034;28;20025;-65
2023/05/15 07:08:06;;;;;;;;;;;;;;;-142.75;100.00;76838.00;5008372;28;19913;-64
2023/05/15 07:10:31;;;;;;;;;;;;;;;-142.75;100.00;76849.81;5008322;28;19914;-63
2023/05/15 07:12:57;;;;;;;;;;;;;;;-142.75;100.00;76843.91;5003873;28;19913;-63
2023/05/15 07:15:22;;;;;;;;;;;;;;;-142.75;100.00;76806.50;5005891;28;20019;-65
2023/05/15 07:17:47;;;;;;;;;;;;;;;-142.75;100.00;76806.50;5005277;28;20047;-66
2023/05/15 07:20:12;;;;;;;;;;;;;;;-142.75;100.00;76804.53;5005829;28;20584;-66
2023/05/15 07:22:38;;;;;;;;;;;;;;;-142.75;100.00;76857.69;5002582;28;20095;-65
2023/05/15 07:25:03;;;;;;;;;;;;;;;-142.75;100.00;76818.31;5007821;28;19949;-66
2023/05/15 07:27:29;;;;;;;;;;;;;;;-142.75;100.00;76867.53;5007775;28;19909;-65
2023/05/15 07:29:54;;;;;;;;;;;;;;;-142.75;100.00;76826.19;5022434;28;20028;-61
2023/05/15 07:32:20;;;;;;;;;;;;;;;-142.75;100.00;76820.28;5021452;28;19913;-64
2023/05/15 07:34:45;;;;;;;;;;;;;;;-142.75;100.00;76853.75;5004388;28;19913;-66
2023/05/15 07:37:10;;;;;;;;;;;;;;;-142.75;100.00;76859.66;5007716;28;19913;-64
2023/05/15 07:39:35;;;;;;;;;;;;;;;-142.75;100.00;76855.72;5007688;28;19909;-66
2023/05/15 07:42:01;;;;;;;;;;;;;;;-142.75;100.00;76838.00;5007690;28;20590;-64
2023/05/15 07:44:26;;;;;;;;;;;;;;;-142.75;100.00;76826.19;5020894;28;19909;-63
2023/05/15 07:46:51;;;;;;;;;;;;;;;-142.75;100.00;76814.38;5008149;28;19913;-66
2023/05/15 07:49:16;;;;;;;;;;;;;;;-142.75;100.00;76806.50;5007803;28;19913;-64
2023/05/15 07:51:42;;;;;;;;;;;;;;;-142.75;100.00;76804.53;5007498;28;19944;-65
2023/05/15 07:54:07;;;;;;;;;;;;;;;-142.75;100.00;76794.69;5005841;28;20286;-66
2023/05/15 07:56:32;;;;;;;;;;;;;;;-142.75;100.00;76786.84;5007032;28;20366;-66
2023/05/15 07:58:57;;;;;;;;;;;;;;;-142.75;100.00;76786.84;5007611;28;19917;-64
2023/05/15 08:01:23;;;;;;;;;;;;;;;-142.75;100.00;76788.81;5020620;28;20377;-67
2023/05/15 08:03:48;;;;;;;;;;;;;;;-142.75;100.00;76802.56;5020167;28;20478;-66
2023/05/15 08:06:13;;;;;;;;;;;;;;;-142.75;100.00;76792.75;5007143;28;20000;-65
2023/05/15 08:08:38;;;;;;;;;;;;;;;-142.75;100.00;76796.69;5007724;28;19916;-65
2023/05/15 08:11:04;;;;;;;;;;;;;;;-142.75;100.00;76818.31;5007335;28;20306;-65
2023/05/15 08:13:29;;;;;;;;;;;;;;;-142.75;100.00;76820.28;5003952;28;20278;-65
2023/05/15 08:15:54;;;;;;;;;;;;;;;-142.75;100.00;76808.50;5007070;28;19913;-62
2023/05/15 08:18:20;;;;;;;;;;;;;;;-142.75;100.00;76798.66;5008255;28;20366;-66
2023/05/15 08:20:45;;;;;;;;;;;;;;;-142.75;100.00;76802.56;5021947;28;19983;-65
2023/05/15 08:23:10;;;;;;;;;;;;;;;-142.75;100.00;76804.53;5006934;28;19910;-64
2023/05/15 08:25:35;;;;;;;;;;;;;;;-142.75;100.00;76814.38;5006890;28;19913;-63
2023/05/15 08:28:01;;;;;;;;;;;;;;;-142.75;100.00;76810.44;5006819;28;19909;-65
2023/05/15 08:30:26;;;;;;;;;;;;;;;-142.75;100.00;76806.50;5007168;28;20270;-61
2023/05/15 08:32:51;;;;;;;;;;;;;;;-142.75;100.00;76806.50;5006863;28;19919;-64
2023/05/15 08:35:17;;;;;;;;;;;;;;;-142.75;100.00;76810.44;5004387;28;19959;-64
2023/05/15 08:37:42;;;;;;;;;;;;;;;-142.75;100.00;76798.66;5006672;28;20270;-65
2023/05/15 08:40:08;;;;;;;;;;;;;;;-142.75;100.00;76798.66;5020105;28;20100;-65
2023/05/15 08:42:33;;;;;;;;;;;;;;;-142.75;100.00;76796.69;5006837;28;19918;-63
2023/05/15 08:44:58;;;;;;;;;;;;;;;-142.75;100.00;76796.69;5020308;28;19952;-64
2023/05/15 08:47:26;;;;;;;;;;;;;;;-142.75;100.00;76796.69;5020755;28;20341;-64
2023/05/15 08:50:07;;;;;;;;;;;;;;;-142.75;100.00;76802.56;5007014;28;19914;-65
2023/05/15 08:52:33;;;;;;;;;;;;;;;-142.75;100.00;76802.56;5007232;28;20417;-65
2023/05/15 08:54:58;;;;;;;;;;;;;;;-142.75;100.00;76806.50;5005908;28;19921;-64
2023/05/15 08:57:24;;;;;;;;;;;;;;;-142.75;100.00;76818.31;5001942;28;19913;-62
2023/05/15 08:59:50;;;;;;;;;;;;;;;-142.75;100.00;76804.53;5007358;28;19919;-65
2023/05/15 09:02:15;;;;;;;;;;;;;;;-142.75;100.00;76796.69;5006612;28;19914;-64
2023/05/15 09:04:41;;;;;;;;;;;;;;;-142.75;100.00;76788.81;5006252;28;19924;-64
2023/05/15 09:07:06;;;;;;;;;;;;;;;-142.75;100.00;76790.78;5003222;28;19915;-64
2023/05/15 09:09:33;;;;;;;;;;;;;;;-142.75;100.00;76775.03;5006331;28;19909;-63
2023/05/15 09:11:59;;;;;;;;;;;;;;;-142.75;100.00;76786.84;5004562;28;19909;-65
2023/05/15 09:14:24;;;;;;;;;;;;;;;-142.75;100.00;76780.94;5006286;28;19921;-64
2023/05/15 09:16:51;;;;;;;;;;;;;;;-142.75;100.00;76790.78;5006904;28;19924;-65
2023/05/15 09:19:18;;;;;;;;;;;;;;;-142.75;100.00;76788.81;5003586;28;20571;-65
2023/05/15 09:21:43;;;;;;;;;;;;;;;-142.75;100.00;76778.97;5006062;28;19939;-67
2023/05/15 09:24:35;;;;;;;;;;;;;;;-142.75;100.00;76790.78;5006122;28;19909;-65
2023/05/15 09:27:05;;;;;;;;;;;;;;;-142.75;100.00;76786.84;5004817;28;19910;-66
2023/05/15 09:29:30;;;;;;;;;;;;;;;-142.75;100.00;76786.84;5003924;28;19941;-66
2023/05/15 09:31:56;;;;;;;;;;;;;;;-142.75;100.00;76794.69;5005883;28;20006;-64
2023/05/15 09:34:28;;;;;;;;;;;;;;;-142.75;100.00;76810.44;5006277;28;19968;-65
2023/05/15 09:36:53;;;;;;;;;;;;;;;-142.75;100.00;76798.66;5005706;28;19925;-64
2023/05/15 09:39:21;;;;;;;;;;;;;;;-142.75;100.00;76790.78;5020785;28;20362;-65
2023/05/15 09:41:46;;;;;;;;;;;;;;;-142.75;100.00;76778.97;5005649;28;19920;-66
2023/05/15 09:44:24;;;;;;;;;;;;;;;-142.75;100.00;76798.66;5014812;28;19917;-65
2023/05/15 09:46:50;;;;;;;;;;;;;;;-142.75;100.00;76759.28;5006393;28;19920;-66
2023/05/15 09:49:15;;;;;;;;;;;;;;;-142.75;100.00;76753.38;4999936;28;19996;-66
2023/05/15 09:51:42;;;;;;;;;;;;;;;-142.75;100.00;76745.50;5005991;28;19960;-65
2023/05/15 09:54:12;;;;;;;;;;;;;;;-142.75;100.00;76749.44;5003778;28;19909;-65
2023/05/15 09:56:39;;;;;;;;;;;;;;;-142.75;100.00;76733.69;5005792;28;19913;-66
2023/05/15 09:59:05;;;;;;;;;;;;;;;-142.75;100.00;76737.63;5005916;28;19916;-65
2023/05/15 10:01:30;;;;;;;;;;;;;;;-142.75;100.00;76715.97;5005988;28;19909;-64
2023/05/15 10:03:58;;;;;;;;;;;;;;;-142.75;100.00;76690.38;5019139;28;19979;-64
2023/05/15 10:06:23;;;;;;;;;;;;;;;-142.75;100.00;76688.41;5005389;28;19909;-61
2023/05/15 10:08:53;;;;;;;;;;;;;;;-142.75;100.00;76680.53;5023796;28;19936;-65
2023/05/15 10:11:18;;;;;;;;;;;;;;;-142.75;100.00;76682.50;5022633;28;20278;-63
2023/05/15 10:13:44;;;;;;;;;;;;;;;-142.75;100.00;76684.47;5007389;28;20083;-65
2023/05/15 10:16:10;;;;;;;;;;;;;;;-142.75;100.00;76684.47;4996831;28;19925;-62
2023/05/15 10:18:37;;;;;;;;;;;;;;;-142.75;100.00;76694.31;5009593;28;19921;-62
2023/05/15 10:21:03;;;;;;;;;;;;;;;-142.75;100.00;76696.28;5006751;28;19913;-63
2023/05/15 10:23:30;;;;;;;;;;;;;;;-142.75;100.00;76704.16;5008660;28;20385;-61
2023/05/15 10:26:03;;;;;;;;;;;;;;;-142.75;100.00;76715.97;5008661;28;19910;-65
2023/05/15 10:28:28;;;;;;;;;;;;;;;-142.75;100.00;76731.72;5008764;28;19917;-64
2023/05/15 10:30:55;;;;;;;;;;;;;;;-142.75;100.00;76757.31;5004423;28;19917;-63
2023/05/15 10:33:20;;;;;;;;;;;;;;;-142.75;100.00;76767.16;5005540;28;19945;-65
2023/05/15 10:35:47;;;;;;;;;;;;;;;-142.75;100.00;76739.59;5008122;28;19924;-64
2023/05/15 10:38:12;;;;;;;;;;;;;;;-142.75;100.00;76763.22;5008736;28;19913;-64
2023/05/15 10:40:39;;;;;;;;;;;;;;;-142.75;100.00;76763.22;5008987;28;20004;-65
2023/05/15 10:43:05;;;;;;;;;;;;;;;-142.75;100.00;76786.84;5022711;28;19913;-63
2023/05/15 10:45:31;;;;;;;;;;;;;;;-142.75;100.00;76790.78;5008756;28;19955;-66
2023/05/15 10:47:57;;;;;;;;;;;;;;;-142.75;100.00;76790.78;5009094;28;20345;-64
2023/05/15 10:50:22;;;;;;;;;;;;;;;-142.75;100.00;76784.88;5005973;28;19928;-62
2023/05/15 10:52:51;;;;;;;;;;;;;;;-142.75;100.00;76778.97;5008626;28;19917;-64
2023/05/15 10:55:16;;;;;;;;;;;;;;;-142.75;100.00;76775.03;5008416;28;19987;-65
2023/05/15 10:57:43;;;;;;;;;;;;;;;-142.75;100.00;76755.34;5006983;28;20119;-63
2023/05/15 11:00:21;;;;;;;;;;;;;;;-142.75;100.00;76778.97;5008609;28;19915;-63
2023/05/15 11:02:46;;;;;;;;;;;;;;;-142.75;100.00;76778.97;5008516;28;20689;-64
2023/05/15 11:05:13;;;;;;;;;;;;;;;-142.75;100.00;76765.19;5000189;28;20019;-67
2023/05/15 11:07:38;;;;;;;;;;;;;;;-142.75;100.00;76761.25;5006015;28;19917;-67
2023/05/15 11:10:23;;;;;;;;;;;;;;;-142.75;100.00;76739.59;5006185;28;20009;-68
2023/05/15 11:12:56;;;;;;;;;;;;;;;-142.75;100.00;76731.72;5000517;28;20325;-65
2023/05/15 11:15:21;;;;;;;;;;;;;;;-142.75;100.00;76725.81;5001399;28;20335;-65
2023/05/15 11:18:03;;;;;;;;;;;;;;;-142.75;100.00;76721.88;5004821;28;19972;-64
2023/05/15 11:20:32;;;;;;;;;;;;;;;-142.75;100.00;76708.09;5007331;28;19920;-65
2023/05/15 11:23:00;;;;;;;;;;;;;;;-142.75;100.00;76704.16;5007234;28;20062;-66
2023/05/15 11:25:30;;;;;;;;;;;;;;;-142.75;100.00;76708.09;5006773;28;19995;-65
2023/05/15 11:27:56;;;;;;;;;;;;;;;-142.75;100.00;76719.91;5007271;28;19944;-66
2023/05/15 11:30:23;;;;;;;;;;;;;;;-142.75;100.00;76741.56;5005449;28;20042;-66
2023/05/15 11:32:57;;;;;;;;;;;;;;;-142.75;100.00;76755.34;5007273;28;19913;-65
2023/05/15 11:35:28;;;;;;;;;;;;;;;-142.75;100.00;76753.38;5010671;28;19910;-65
2023/05/15 11:37:53;;;;;;;;;;;;;;;-142.75;100.00;76717.94;5022029;28;19956;-63
2023/05/15 11:40:26;;;;;;;;;;;;;;;-142.75;100.00;76708.09;5021738;28;19949;-65
2023/05/15 11:43:04;;;;;;;;;;;;;;;-142.75;100.00;76731.72;5002191;28;19917;-65
2023/05/15 11:45:30;;;;;;;;;;;;;;;-142.75;100.00;76755.34;5005674;28;19922;-65
2023/05/15 11:47:56;;;;;;;;;;;;;;;-142.75;100.00;76773.06;5004765;28;19915;-64
2023/05/15 11:50:22;;;;;;;;;;;;;;;-142.75;100.00;76806.50;4999002;28;20289;-65
2023/05/15 11:52:48;;;;;;;;;;;;;;;-142.75;100.00;76794.69;5006464;28;19909;-64
2023/05/15 11:55:14;;;;;;;;;;;;;;;-142.75;100.00;76798.66;5006843;28;20283;-65
2023/05/15 11:57:39;;;;;;;;;;;;;;;-142.75;100.00;76786.84;5007076;28;19975;-67
2023/05/15 12:00:05;;;;;;;;;;;;;;;-142.75;100.00;76775.03;5007160;28;20362;-64
2023/05/15 12:02:30;;;;;;;;;;;;;;;-142.75;100.00;76759.28;5006998;28;19909;-65
2023/05/15 12:04:55;;;;;;;;;;;;;;;-142.75;100.00;76767.16;5007002;28;19922;-64
2023/05/15 12:07:21;;;;;;;;;;;;;;;-142.75;100.00;76780.94;5004999;28;19928;-64
2023/05/15 12:09:51;;;;;;;;;;;;;;;-142.75;100.00;76788.81;5007818;28;20437;-66
2023/05/15 12:12:16;;;;;;;;;;;;;;;-142.75;100.00;76788.81;5002270;28;19913;-65
2023/05/15 12:14:42;;;;;;;;;;;;;;;-142.75;100.00;76808.50;5007583;28;19916;-65